aviador You're here:

YMLT Decoded Metar

LAUNCESTON in AUSTRALIA
Report Time2017-10-20 12:00:00
UTC Time2017-10-20 12:19:54
Flight Rules vfr VFR
Wind330° at 07 kt
W.Decomp.*RWY 32: 7.0 kt HW 0.5 kt LCW
RWY 36: 5.0 kt HW 4.9 kt LCW
W.Rank330° ranks 3
Current wind is below 330° avg. (10.8)
Visibility9999 m
Phenomena:N/A
Clouds:N/A
Expected CloudBase > 2,400 ft AGL from Temp-Dew spread
CeilingNone
Temp08°C (ISA -6)
Dew Point02°C (66% RH)
AAT3.8°C
QNH1022 hPa
Density Alt-322 ft
Elevation584 ft
Report Wrong Elevation
Raw Report
YMLT 201200Z AUTO 33007KT 9999 // NCD 08/02 Q1022 RF00.0/000.0=

Extra information for YMLT:More info

Metar Taf Metar & Taf Last 4 Metars F.Rules Stats Wind Profile Meteogram Temp Stats Airport Information Weather charts Add Link Nearby VenuesMetar ALERT Operation Metar Decoded Social comments